« 懐古 雨中沖縄 2001/05/13 sun | トップページ | 海保日和 富山湾 2019/1/13 sun »

2019/01/13

定点 富山空港 2019/1/13 sun

午前は別件で行動していたのですが、帰り道に自然保護の為、河原に立ち寄りました。

RJNT 130300Z 36004KT 310V050 9999 FEW020 SCT040 08/M01 Q1020

20190113_rjnt_00ja201m

JA201M PA-28RT-201T

20190113_rjnt_01ja10ym

JA10YM A109SP SAK 富山県ドクターヘリ

急患輸送で市民病院へアプローチ

RJNT 130400Z 36006KT 9999 FEW020 SCT030 BKN040 08/M00 Q1019

20190113_rjnt_02b18657

到着には間に合いませんでした。

20190113_rjnt_03b18657

20190113_rjnt_04b18657

CAL171 RJNT-RCTP B-18657 B737-8FH

20190113_rjnt_05b18657

わぉ、大群に襲われた・・ 反対だったら大変ですが

20190113_rjnt_06b18657

富山では、台湾キャンペーンやってるよ よろしい!

|

« 懐古 雨中沖縄 2001/05/13 sun | トップページ | 海保日和 富山湾 2019/1/13 sun »

富山空港」カテゴリの記事

コメント

コメントを書く



(ウェブ上には掲載しません)


コメントは記事投稿者が公開するまで表示されません。



トラックバック


この記事へのトラックバック一覧です: 定点 富山空港 2019/1/13 sun:

« 懐古 雨中沖縄 2001/05/13 sun | トップページ | 海保日和 富山湾 2019/1/13 sun »